createdAt,value
2022-10-19T00:01:14.930Z,100.00
2022-10-19T00:03:42.289Z,100.00
2022-10-19T00:06:19.741Z,100.00
2022-10-19T00:08:46.215Z,100.00
2022-10-19T00:11:12.981Z,100.00
2022-10-19T00:13:39.893Z,100.00
2022-10-19T00:16:12.780Z,100.00
2022-10-19T00:18:40.540Z,100.00
2022-10-19T00:21:09.470Z,100.00
2022-10-19T00:23:37.144Z,100.00
2022-10-19T00:26:03.588Z,100.00
2022-10-19T00:28:30.345Z,100.00
2022-10-19T00:30:56.867Z,100.00
2022-10-19T00:33:23.532Z,100.00
2022-10-19T00:35:51.776Z,100.00
2022-10-19T00:38:20.602Z,100.00
2022-10-19T00:40:47.830Z,100.00
2022-10-19T00:43:20.749Z,100.00
2022-10-19T00:45:47.223Z,100.00
2022-10-19T00:48:19.421Z,100.00
2022-10-19T00:50:48.441Z,100.00
2022-10-19T00:53:15.333Z,100.00
2022-10-19T00:55:42.469Z,100.00
2022-10-19T00:58:09.876Z,100.00
2022-10-19T01:00:36.683Z,100.00
2022-10-19T01:03:03.887Z,100.00
2022-10-19T01:05:32.525Z,100.00
2022-10-19T01:07:59.034Z,100.00
2022-10-19T01:10:40.281Z,100.00
2022-10-19T01:13:09.738Z,100.00
2022-10-19T01:15:55.567Z,100.00
2022-10-19T01:18:42.590Z,100.00
2022-10-19T01:21:26.190Z,100.00
2022-10-19T01:24:05.445Z,100.00
2022-10-19T01:27:05.232Z,100.00
2022-10-19T01:29:57.080Z,100.00
2022-10-19T01:32:41.831Z,100.00
2022-10-19T01:35:11.733Z,100.00
2022-10-19T01:37:48.287Z,100.00
2022-10-19T01:40:26.831Z,100.00
2022-10-19T01:43:21.894Z,100.00
2022-10-19T01:46:07.023Z,100.00
2022-10-19T01:48:37.770Z,100.00
2022-10-19T01:51:19.498Z,100.00
2022-10-19T01:53:53.330Z,100.00
2022-10-19T01:56:24.650Z,100.00
2022-10-19T01:58:52.734Z,100.00
2022-10-19T02:01:23.032Z,100.00
2022-10-19T02:03:51.677Z,100.00
2022-10-19T02:06:18.731Z,100.00
2022-10-19T02:08:48.886Z,100.00
2022-10-19T02:11:17.084Z,100.00
2022-10-19T02:13:46.100Z,100.00
2022-10-19T02:16:18.003Z,100.00
2022-10-19T02:18:50.966Z,100.00
2022-10-19T02:21:18.303Z,100.00
2022-10-19T02:23:46.732Z,100.00
2022-10-19T02:26:14.036Z,100.00
2022-10-19T02:28:40.689Z,100.00
2022-10-19T02:31:07.357Z,100.00
2022-10-19T02:33:33.945Z,100.00
2022-10-19T02:36:00.928Z,100.00
2022-10-19T02:38:28.053Z,100.00
2022-10-19T02:41:04.219Z,100.00
2022-10-19T02:43:34.946Z,100.00
2022-10-19T02:46:08.084Z,100.00
2022-10-19T02:48:37.922Z,100.00
2022-10-19T02:51:04.478Z,100.00
2022-10-19T02:53:30.932Z,100.00
2022-10-19T02:55:57.524Z,100.00
2022-10-19T02:58:23.928Z,100.00
2022-10-19T03:00:50.397Z,100.00
2022-10-19T03:03:16.865Z,100.00
2022-10-19T03:05:43.297Z,100.00
2022-10-19T03:08:09.709Z,100.00
2022-10-19T03:10:36.212Z,100.00
2022-10-19T03:13:02.678Z,100.00
2022-10-19T03:15:29.983Z,100.00
2022-10-19T03:17:56.733Z,100.00
2022-10-19T03:20:23.479Z,100.00
2022-10-19T03:22:50.302Z,100.00
2022-10-19T03:25:16.831Z,100.00
2022-10-19T03:27:43.226Z,100.00
2022-10-19T03:30:10.058Z,100.00
2022-10-19T03:32:36.461Z,100.00
2022-10-19T03:35:02.894Z,100.00
2022-10-19T03:37:29.301Z,100.00
2022-10-19T03:39:55.691Z,100.00
2022-10-19T03:42:22.086Z,100.00
2022-10-19T03:44:48.542Z,100.00
2022-10-19T03:47:14.982Z,100.00
2022-10-19T03:49:43.467Z,100.00
2022-10-19T03:52:10.191Z,100.00
2022-10-19T03:54:36.795Z,100.00
2022-10-19T03:57:03.307Z,100.00
2022-10-19T03:59:29.738Z,100.00
2022-10-19T04:01:56.214Z,100.00
2022-10-19T04:04:22.661Z,100.00
2022-10-19T04:06:50.099Z,100.00
2022-10-19T04:09:19.203Z,100.00
2022-10-19T04:11:46.085Z,100.00
2022-10-19T04:14:26.863Z,100.00
2022-10-19T04:16:59.905Z,100.00
2022-10-19T04:19:26.340Z,100.00
2022-10-19T04:21:52.838Z,100.00
2022-10-19T04:24:19.387Z,100.00
2022-10-19T04:26:48.406Z,100.00
2022-10-19T04:29:16.241Z,100.00
2022-10-19T04:31:43.065Z,100.00
2022-10-19T04:34:09.538Z,100.00
2022-10-19T04:36:36.250Z,100.00
2022-10-19T04:39:03.794Z,100.00
2022-10-19T04:41:30.971Z,100.00
2022-10-19T04:44:03.083Z,100.00
2022-10-19T04:46:30.245Z,100.00
2022-10-19T04:48:57.534Z,100.00
2022-10-19T04:51:25.255Z,100.00
2022-10-19T04:53:53.405Z,100.00
2022-10-19T04:56:26.368Z,100.00
2022-10-19T04:58:56.237Z,100.00
2022-10-19T05:01:23.413Z,100.00
2022-10-19T05:03:54.129Z,100.00
2022-10-19T05:06:20.668Z,100.00
2022-10-19T05:08:48.303Z,100.00
2022-10-19T05:11:15.365Z,100.00
2022-10-19T05:13:42.692Z,100.00
2022-10-19T05:16:13.316Z,100.00
2022-10-19T05:18:40.250Z,100.00
2022-10-19T05:21:13.077Z,100.00
2022-10-19T05:23:40.525Z,100.00
2022-10-19T05:26:12.545Z,100.00
2022-10-19T05:28:39.523Z,100.00
2022-10-19T05:31:12.165Z,100.00
2022-10-19T05:33:39.605Z,100.00
2022-10-19T05:36:26.233Z,100.00
2022-10-19T05:38:54.635Z,100.00
2022-10-19T05:41:22.240Z,100.00
2022-10-19T05:43:53.642Z,100.00
2022-10-19T05:46:20.099Z,100.00
2022-10-19T05:48:47.221Z,100.00
2022-10-19T05:51:16.579Z,100.00
2022-10-19T05:53:43.401Z,100.00
2022-10-19T05:56:14.605Z,100.00
2022-10-19T05:58:41.431Z,100.00
2022-10-19T06:01:09.378Z,100.00
2022-10-19T06:03:36.327Z,100.00
2022-10-19T06:06:04.799Z,100.00
2022-10-19T06:08:31.196Z,100.00
2022-10-19T06:11:16.028Z,100.00
2022-10-19T06:13:44.340Z,100.00
2022-10-19T06:16:13.720Z,100.00
2022-10-19T06:18:40.405Z,100.00
2022-10-19T06:21:10.193Z,100.00
2022-10-19T06:23:37.513Z,100.00
2022-10-19T06:26:07.267Z,100.00
2022-10-19T06:28:34.815Z,100.00
2022-10-19T06:31:01.818Z,100.00
2022-10-19T06:33:30.179Z,100.00
2022-10-19T06:35:56.678Z,100.00
2022-10-19T06:38:23.214Z,100.00
2022-10-19T06:40:49.681Z,100.00
2022-10-19T06:43:16.157Z,100.00
2022-10-19T06:45:42.603Z,100.00
2022-10-19T06:48:09.060Z,100.00
2022-10-19T06:50:35.572Z,100.00
2022-10-19T06:53:02.033Z,100.00
2022-10-19T06:55:28.566Z,100.00
2022-10-19T06:57:55.013Z,100.00
2022-10-19T07:00:21.489Z,100.00
2022-10-19T07:02:47.908Z,100.00
2022-10-19T07:05:14.443Z,100.00
2022-10-19T07:07:40.897Z,100.00
2022-10-19T07:10:07.581Z,100.00
2022-10-19T07:12:34.041Z,100.00
2022-10-19T07:15:00.491Z,100.00
2022-10-19T07:17:26.976Z,100.00
2022-10-19T07:19:53.504Z,100.00
2022-10-19T07:22:24.435Z,100.00
2022-10-19T07:24:54.653Z,100.00
2022-10-19T07:27:21.125Z,100.00
2022-10-19T07:29:47.539Z,100.00
2022-10-19T07:32:13.972Z,100.00
2022-10-19T07:34:40.503Z,100.00
2022-10-19T07:37:07.084Z,100.00
2022-10-19T07:39:33.535Z,100.00
2022-10-19T07:41:59.987Z,100.00
2022-10-19T07:44:26.871Z,100.00
2022-10-19T07:46:58.008Z,100.00
2022-10-19T07:49:24.529Z,100.00
2022-10-19T07:51:54.108Z,100.00
2022-10-19T07:54:21.411Z,100.00
2022-10-19T07:56:47.893Z,100.00
2022-10-19T07:59:16.206Z,100.00
2022-10-19T08:01:44.087Z,100.00
2022-10-19T08:06:57.003Z,100.00
2022-10-19T08:09:50.877Z,100.00
2022-10-19T08:12:13.979Z,100.00
2022-10-19T08:14:41.771Z,100.00
2022-10-19T08:17:11.702Z,100.00
2022-10-19T08:19:43.576Z,100.00
2022-10-19T08:22:11.506Z,100.00
2022-10-19T08:24:38.111Z,100.00
2022-10-19T08:27:05.158Z,100.00
2022-10-19T08:29:32.073Z,100.00
2022-10-19T08:31:59.374Z,100.00
2022-10-19T08:34:26.248Z,100.00
2022-10-19T08:36:52.707Z,100.00
2022-10-19T08:39:19.266Z,100.00
2022-10-19T08:42:00.970Z,100.00
2022-10-19T08:44:33.444Z,100.00
2022-10-19T08:47:22.338Z,100.00
2022-10-19T08:49:50.018Z,100.00
2022-10-19T08:52:21.395Z,100.00
2022-10-19T08:55:15.066Z,100.00
2022-10-19T08:58:00.155Z,100.00
2022-10-19T09:00:43.358Z,100.00
2022-10-19T09:03:55.569Z,100.00
2022-10-19T09:06:37.168Z,100.00
2022-10-19T09:09:05.782Z,100.00
2022-10-19T09:11:41.938Z,100.00
2022-10-19T09:14:22.710Z,100.00
2022-10-19T09:16:49.246Z,100.00
2022-10-19T09:19:29.172Z,100.00
2022-10-19T09:22:06.272Z,100.00
2022-10-19T09:24:43.893Z,100.00
2022-10-19T09:27:39.044Z,100.00
2022-10-19T09:30:27.060Z,100.00
2022-10-19T09:33:01.122Z,100.00
2022-10-19T09:35:34.132Z,100.00
2022-10-19T09:38:00.785Z,98.27
2022-10-19T09:40:30.167Z,99.36
2022-10-19T09:42:58.754Z,97.79
2022-10-19T09:45:47.705Z,96.11
2022-10-19T09:48:41.681Z,96.97
2022-10-19T09:51:12.290Z,94.73
2022-10-19T09:53:44.449Z,94.15
2022-10-19T09:56:18.930Z,91.54
2022-10-19T09:58:55.292Z,90.89
2022-10-19T10:01:40.151Z,90.88
2022-10-19T10:04:18.440Z,90.20
2022-10-19T10:06:47.972Z,88.94
2022-10-19T10:09:17.347Z,86.75
2022-10-19T10:11:47.983Z,88.44
2022-10-19T10:14:23.259Z,86.06
2022-10-19T10:16:55.918Z,86.76
2022-10-19T10:19:27.404Z,86.84
2022-10-19T10:21:55.761Z,88.32
2022-10-19T10:24:24.553Z,87.59
2022-10-19T10:26:57.811Z,88.04
2022-10-19T10:29:34.308Z,85.55
2022-10-19T10:32:00.684Z,84.59
2022-10-19T10:34:49.450Z,85.39
2022-10-19T10:37:28.352Z,85.57
2022-10-19T10:39:59.138Z,86.09
2022-10-19T10:42:44.680Z,84.95
2022-10-19T10:45:33.508Z,84.22
2022-10-19T10:48:16.068Z,85.30
2022-10-19T10:50:43.754Z,86.37
2022-10-19T10:53:32.065Z,85.89
2022-10-19T10:55:58.612Z,84.86
2022-10-19T10:58:54.900Z,83.95
2022-10-19T11:01:29.072Z,84.61
2022-10-19T11:04:11.060Z,85.64
2022-10-19T11:06:54.002Z,85.50
2022-10-19T11:09:34.461Z,85.16
2022-10-19T11:12:08.990Z,83.82
2022-10-19T11:14:49.327Z,81.91
2022-10-19T11:17:23.724Z,82.06
2022-10-19T11:19:51.380Z,82.48
2022-10-19T11:22:27.179Z,80.60
2022-10-19T11:25:18.571Z,82.22
2022-10-19T11:27:57.239Z,81.13
2022-10-19T11:30:25.082Z,80.96
2022-10-19T11:33:03.744Z,81.08
2022-10-19T11:35:58.039Z,81.08
2022-10-19T11:39:03.577Z,81.97
2022-10-19T11:41:38.865Z,80.58
2022-10-19T11:44:28.148Z,79.26
2022-10-19T11:47:13.427Z,79.56
2022-10-19T11:49:51.880Z,79.87
2022-10-19T11:52:37.217Z,80.61
2022-10-19T11:55:27.147Z,81.37
2022-10-19T11:58:39.436Z,79.56
2022-10-19T12:01:42.080Z,80.05
2022-10-19T12:04:14.715Z,79.51
2022-10-19T12:06:46.025Z,80.63
2022-10-19T12:09:30.820Z,78.12
2022-10-19T12:12:23.013Z,79.08
2022-10-19T12:14:56.946Z,77.62
2022-10-19T12:17:33.468Z,76.13
2022-10-19T12:20:06.439Z,76.20
2022-10-19T12:22:35.138Z,75.66
2022-10-19T12:25:01.961Z,76.24
2022-10-19T12:27:37.398Z,74.66
2022-10-19T12:30:18.748Z,74.50
2022-10-19T12:33:09.126Z,73.60
2022-10-19T12:35:54.294Z,73.50
2022-10-19T12:38:29.176Z,73.52
2022-10-19T12:41:19.771Z,69.83
2022-10-19T12:44:09.150Z,70.37
2022-10-19T12:46:42.980Z,71.45
2022-10-19T12:49:31.258Z,70.07
2022-10-19T12:52:01.713Z,68.33
2022-10-19T12:54:31.149Z,66.84
2022-10-19T12:57:00.460Z,67.48
2022-10-19T12:59:35.860Z,66.47
2022-10-19T13:02:05.773Z,67.20
2022-10-19T13:04:35.847Z,68.51
2022-10-19T13:07:10.561Z,68.13
2022-10-19T13:09:45.810Z,68.06
2022-10-19T13:12:21.544Z,67.93
2022-10-19T13:14:51.419Z,68.80
2022-10-19T13:17:49.136Z,68.74
2022-10-19T13:20:15.656Z,69.15
2022-10-19T13:22:46.108Z,70.54
2022-10-19T13:25:23.717Z,70.55
2022-10-19T13:27:52.709Z,68.35
2022-10-19T13:30:38.468Z,68.55
2022-10-19T13:33:28.410Z,69.49
2022-10-19T13:36:01.000Z,70.71
2022-10-19T13:38:30.971Z,70.26
2022-10-19T13:41:06.814Z,70.20
2022-10-19T13:43:39.521Z,70.33
2022-10-19T13:46:08.842Z,70.61
2022-10-19T13:48:44.287Z,70.38
2022-10-19T13:51:40.126Z,69.63
2022-10-19T13:54:20.477Z,68.55
2022-10-19T13:57:11.916Z,68.64
2022-10-19T14:00:10.343Z,67.91
2022-10-19T14:02:58.149Z,68.83
2022-10-19T14:06:05.013Z,69.82
2022-10-19T14:09:10.553Z,67.83
2022-10-19T14:11:41.283Z,67.67
2022-10-19T14:14:10.512Z,67.29
2022-10-19T14:17:03.070Z,67.79
2022-10-19T14:19:47.208Z,68.45
2022-10-19T14:22:21.721Z,69.17
2022-10-19T14:24:48.197Z,67.59
2022-10-19T14:27:23.061Z,67.93
2022-10-19T14:29:53.545Z,67.03
2022-10-19T14:32:26.110Z,67.27
2022-10-19T14:34:53.830Z,68.50
2022-10-19T14:37:26.817Z,68.24
2022-10-19T14:40:03.904Z,68.57
2022-10-19T14:42:57.714Z,68.74
2022-10-19T14:45:29.917Z,69.50
2022-10-19T14:47:56.331Z,68.32
2022-10-19T14:50:45.073Z,68.63
2022-10-19T14:53:32.903Z,68.60
2022-10-19T14:56:06.057Z,68.78
2022-10-19T14:58:39.810Z,68.51
2022-10-19T15:01:07.070Z,68.80
2022-10-19T15:03:33.891Z,68.40
2022-10-19T15:06:04.849Z,69.31
2022-10-19T15:08:34.858Z,70.51
2022-10-19T15:11:01.459Z,70.93
2022-10-19T15:13:33.529Z,70.54
2022-10-19T15:16:00.215Z,69.63
2022-10-19T15:18:48.308Z,70.65
2022-10-19T15:21:21.054Z,71.22
2022-10-19T15:23:52.347Z,71.25
2022-10-19T15:26:24.783Z,71.34
2022-10-19T15:28:52.060Z,72.05
2022-10-19T15:31:39.111Z,72.53
2022-10-19T15:34:05.930Z,72.54
2022-10-19T15:36:32.808Z,72.98
2022-10-19T15:39:18.088Z,73.42
2022-10-19T15:41:50.099Z,73.79
2022-10-19T15:44:33.877Z,74.03
2022-10-19T15:47:15.373Z,73.72
2022-10-19T15:49:41.740Z,74.36
2022-10-19T15:52:18.915Z,74.20
2022-10-19T15:54:52.702Z,75.21
2022-10-19T15:57:28.002Z,76.17
2022-10-19T15:59:56.959Z,76.78
2022-10-19T16:02:25.146Z,80.28
2022-10-19T16:04:55.343Z,81.71
2022-10-19T16:07:29.282Z,82.44
2022-10-19T16:09:56.431Z,83.04
2022-10-19T16:12:24.278Z,83.80
2022-10-19T16:14:50.850Z,84.52
2022-10-19T16:17:17.529Z,84.02
2022-10-19T16:19:44.904Z,85.05
2022-10-19T16:22:12.902Z,86.00
2022-10-19T16:24:39.518Z,87.20
2022-10-19T16:27:07.011Z,89.32
2022-10-19T16:29:34.721Z,89.16
2022-10-19T16:32:01.440Z,90.67
2022-10-19T16:34:28.028Z,91.00
2022-10-19T16:36:54.583Z,91.07
2022-10-19T16:39:21.118Z,90.99
2022-10-19T16:41:47.682Z,92.19
2022-10-19T16:44:14.215Z,91.08
2022-10-19T16:46:40.706Z,93.16
2022-10-19T16:49:07.159Z,94.24
2022-10-19T16:51:39.560Z,94.57
2022-10-19T16:54:08.339Z,94.61
2022-10-19T16:56:35.762Z,94.73
2022-10-19T16:59:05.310Z,95.15
2022-10-19T17:01:33.161Z,95.41
2022-10-19T17:04:00.381Z,95.25
2022-10-19T17:06:28.008Z,94.63
2022-10-19T17:11:44.700Z,95.09
2022-10-19T17:14:12.834Z,95.73
2022-10-19T17:16:40.140Z,95.89
2022-10-19T17:19:08.190Z,96.87
2022-10-19T17:21:38.502Z,96.58
2022-10-19T17:24:13.845Z,96.32
2022-10-19T17:26:45.100Z,96.66
2022-10-19T17:29:14.074Z,95.78
2022-10-19T17:31:41.697Z,96.51
2022-10-19T17:34:09.318Z,98.51
2022-10-19T17:39:09.129Z,98.05
2022-10-19T17:41:35.816Z,97.71
2022-10-19T17:44:04.201Z,96.86
2022-10-19T17:46:32.540Z,98.11
2022-10-19T17:49:00.600Z,98.06
2022-10-19T17:51:29.627Z,98.25
2022-10-19T17:54:00.182Z,98.78
2022-10-19T17:56:27.607Z,98.86
2022-10-19T17:58:54.423Z,98.74
2022-10-19T18:01:22.572Z,99.04
2022-10-19T18:03:50.126Z,99.29
2022-10-19T18:06:19.452Z,98.38
2022-10-19T18:08:48.675Z,96.40
2022-10-19T18:11:18.297Z,96.95
2022-10-19T18:13:45.260Z,96.27
2022-10-19T18:16:15.502Z,98.43
2022-10-19T18:18:45.908Z,96.54
2022-10-19T18:21:15.406Z,97.04
2022-10-19T18:23:42.056Z,96.29
2022-10-19T18:26:14.969Z,98.01
2022-10-19T18:28:42.394Z,97.02
2022-10-19T18:31:29.151Z,96.87
2022-10-19T18:33:56.809Z,97.62
2022-10-19T18:36:23.293Z,98.48
2022-10-19T18:38:51.854Z,99.10
2022-10-19T18:41:18.404Z,98.94
2022-10-19T18:43:49.590Z,98.30
2022-10-19T18:46:19.140Z,98.00
2022-10-19T18:48:45.661Z,98.59
2022-10-19T18:51:13.103Z,97.56
2022-10-19T18:54:06.436Z,98.45
2022-10-19T18:59:14.936Z,99.11
2022-10-19T19:01:41.602Z,99.27
2022-10-19T19:04:09.508Z,99.43
2022-10-19T19:06:37.260Z,100.00
2022-10-19T19:09:07.047Z,98.77
2022-10-19T19:11:36.913Z,100.00
2022-10-19T19:14:12.317Z,100.00
2022-10-19T19:16:39.740Z,100.00
2022-10-19T19:19:07.412Z,100.00
2022-10-19T19:21:36.512Z,100.00
2022-10-19T19:24:05.512Z,100.00
2022-10-19T19:26:34.892Z,100.00
2022-10-19T19:29:01.493Z,99.28
2022-10-19T19:31:28.109Z,98.97
2022-10-19T19:33:54.589Z,99.22
2022-10-19T19:36:21.143Z,99.72
2022-10-19T19:38:50.487Z,100.00
2022-10-19T19:41:17.505Z,98.69
2022-10-19T19:43:44.336Z,99.12
2022-10-19T19:46:13.817Z,99.54
2022-10-19T19:48:42.513Z,99.97
2022-10-19T19:51:11.452Z,100.00
2022-10-19T19:53:40.094Z,100.00
2022-10-19T19:56:08.209Z,100.00
2022-10-19T19:58:34.738Z,99.32
2022-10-19T20:01:12.446Z,98.04
2022-10-19T20:03:40.011Z,99.30
2022-10-19T20:06:06.787Z,100.00
2022-10-19T20:08:33.748Z,98.86
2022-10-19T20:11:06.154Z,98.10
2022-10-19T20:13:33.050Z,97.11
2022-10-19T20:16:02.513Z,96.07
2022-10-19T20:18:29.613Z,94.15
2022-10-19T20:21:01.478Z,94.04
2022-10-19T20:23:29.164Z,93.37
2022-10-19T20:25:56.358Z,92.57
2022-10-19T20:28:25.082Z,91.83
2022-10-19T20:31:05.266Z,92.05
2022-10-19T20:33:33.888Z,92.96
2022-10-19T20:36:09.329Z,92.95
2022-10-19T20:38:38.624Z,93.60
2022-10-19T20:41:09.625Z,93.77
2022-10-19T20:43:37.479Z,92.71
2022-10-19T20:46:13.237Z,92.57
2022-10-19T20:48:40.358Z,91.90
2022-10-19T20:51:30.892Z,91.22
2022-10-19T20:54:00.227Z,91.32
2022-10-19T20:56:31.780Z,90.39
2022-10-19T21:01:34.813Z,89.76
2022-10-19T21:04:03.318Z,88.61
2022-10-19T21:06:31.658Z,88.47
2022-10-19T21:08:59.206Z,89.18
2022-10-19T21:11:31.303Z,88.60
2022-10-19T21:14:00.224Z,89.02
2022-10-19T21:16:28.362Z,88.88
2022-10-19T21:18:55.090Z,87.11
2022-10-19T21:21:23.839Z,87.38
2022-10-19T21:23:54.001Z,87.21
2022-10-19T21:26:20.537Z,87.79
2022-10-19T21:28:48.734Z,87.30
2022-10-19T21:31:16.483Z,88.02
2022-10-19T21:33:43.743Z,86.12
2022-10-19T21:36:12.353Z,85.83
2022-10-19T21:38:38.769Z,85.47
2022-10-19T21:41:13.996Z,84.97
2022-10-19T21:43:40.445Z,85.18
2022-10-19T21:46:10.674Z,85.25
2022-10-19T21:48:37.205Z,85.47
2022-10-19T21:51:17.116Z,84.63
2022-10-19T21:53:44.245Z,83.84
2022-10-19T21:56:10.698Z,84.30
2022-10-19T21:58:37.141Z,84.11
2022-10-19T22:01:05.297Z,83.68
2022-10-19T22:03:31.810Z,84.26
2022-10-19T22:05:58.537Z,83.14
2022-10-19T22:08:25.232Z,83.31
2022-10-19T22:10:51.761Z,83.00
2022-10-19T22:13:18.507Z,82.72
2022-10-19T22:15:45.113Z,82.50
2022-10-19T22:18:11.664Z,82.32
2022-10-19T22:20:39.518Z,82.55
2022-10-19T22:23:07.723Z,82.64
2022-10-19T22:25:35.337Z,82.06
2022-10-19T22:28:02.123Z,82.44
2022-10-19T22:30:28.560Z,83.36
2022-10-19T22:32:55.803Z,82.95
2022-10-19T22:35:22.485Z,84.37
2022-10-19T22:37:48.924Z,85.16
2022-10-19T22:40:15.414Z,85.99
2022-10-19T22:42:41.867Z,86.40
2022-10-19T22:45:08.504Z,87.49
2022-10-19T22:47:34.937Z,87.43
2022-10-19T22:50:01.380Z,87.50
2022-10-19T22:52:27.851Z,88.12
2022-10-19T22:54:54.323Z,89.77
2022-10-19T22:57:20.737Z,89.78
2022-10-19T22:59:47.215Z,89.40
2022-10-19T23:02:13.624Z,90.94
2022-10-19T23:04:40.053Z,89.39
2022-10-19T23:07:06.490Z,92.06
2022-10-19T23:09:32.925Z,92.51
2022-10-19T23:11:59.313Z,93.50
2022-10-19T23:14:25.776Z,93.58
2022-10-19T23:16:52.253Z,93.99
2022-10-19T23:19:18.900Z,95.12
2022-10-19T23:21:45.388Z,96.23
2022-10-19T23:24:11.821Z,96.09
2022-10-19T23:26:38.254Z,95.49
2022-10-19T23:29:04.677Z,94.07
2022-10-19T23:31:32.752Z,94.93
2022-10-19T23:33:59.166Z,95.59
2022-10-19T23:36:28.554Z,95.15
2022-10-19T23:38:56.129Z,96.47
2022-10-19T23:41:22.772Z,95.62
2022-10-19T23:43:49.688Z,96.51
2022-10-19T23:46:16.186Z,95.43
2022-10-19T23:48:43.066Z,97.32
2022-10-19T23:51:12.378Z,97.59
2022-10-19T23:53:41.319Z,95.06
2022-10-19T23:56:19.561Z,95.47
2022-10-19T23:58:46.813Z,96.25
